createdAt,value
2019-02-28T00:00:08.136Z,70.30
2019-02-28T00:02:39.827Z,73.87
2019-02-28T00:05:11.593Z,57.77
2019-02-28T00:07:44.427Z,79.47
2019-02-28T00:10:16.182Z,75.67
2019-02-28T00:12:48.567Z,76.33
2019-02-28T00:15:21.701Z,79.07
2019-02-28T00:17:53.563Z,73.43
2019-02-28T00:20:25.220Z,73.53
2019-02-28T00:22:56.865Z,72.67
2019-02-28T00:25:28.437Z,76.80
2019-02-28T00:27:59.960Z,70.10
2019-02-28T00:30:31.643Z,71.37
2019-02-28T00:33:03.554Z,77.83
2019-02-28T00:35:35.706Z,75.40
2019-02-28T00:38:07.282Z,75.83
2019-02-28T00:40:39.265Z,71.63
2019-02-28T00:43:10.910Z,62.87
2019-02-28T00:45:42.878Z,69.00
2019-02-28T00:48:14.531Z,70.20
2019-02-28T00:50:46.156Z,75.70
2019-02-28T00:53:17.748Z,71.83
2019-02-28T00:55:49.254Z,72.87
2019-02-28T00:58:20.510Z,68.10
2019-02-28T01:00:52.443Z,77.80
2019-02-28T01:03:26.836Z,67.30
2019-02-28T01:05:57.536Z,68.77
2019-02-28T01:08:29.002Z,68.47
2019-02-28T01:11:00.681Z,69.40
2019-02-28T01:13:32.450Z,66.53
2019-02-28T01:16:04.490Z,66.77
2019-02-28T01:18:36.306Z,64.07
2019-02-28T01:21:09.430Z,66.53
2019-02-28T01:23:40.983Z,65.43
2019-02-28T01:26:12.614Z,69.80
2019-02-28T01:28:44.072Z,51.73
2019-02-28T01:31:15.726Z,66.67
2019-02-28T01:33:48.050Z,60.07
2019-02-28T01:36:20.059Z,62.73
2019-02-28T01:38:51.682Z,63.70
2019-02-28T01:41:23.464Z,47.87
2019-02-28T01:43:55.030Z,62.80
2019-02-28T01:46:26.719Z,59.77
2019-02-28T01:48:58.543Z,61.53
2019-02-28T01:51:35.633Z,58.67
2019-02-28T01:54:03.703Z,59.23
2019-02-28T01:56:36.974Z,64.70
2019-02-28T01:59:08.432Z,63.83
2019-02-28T02:01:41.312Z,64.33
2019-02-28T02:04:13.225Z,57.17
2019-02-28T02:06:44.811Z,52.40
2019-02-28T02:09:16.846Z,56.33
2019-02-28T02:11:48.302Z,45.90
2019-02-28T02:14:19.955Z,54.90
2019-02-28T02:16:52.174Z,51.43
2019-02-28T02:19:23.711Z,55.07
2019-02-28T02:21:55.246Z,58.73
2019-02-28T02:24:27.877Z,52.27
2019-02-28T02:27:00.091Z,51.73
2019-02-28T02:29:32.367Z,51.60
2019-02-28T02:32:04.858Z,52.40
2019-02-28T02:34:36.806Z,52.77
2019-02-28T02:37:08.551Z,55.27
2019-02-28T02:39:40.127Z,55.10
2019-02-28T02:42:11.957Z,54.97
2019-02-28T02:44:45.809Z,52.03
2019-02-28T02:47:17.445Z,54.20
2019-02-28T02:49:56.127Z,56.00
2019-02-28T02:52:25.852Z,54.90
2019-02-28T02:54:55.465Z,53.00
2019-02-28T02:57:27.179Z,54.67
2019-02-28T02:59:58.813Z,51.00
2019-02-28T03:02:33.121Z,39.73
2019-02-28T03:05:03.697Z,50.90
2019-02-28T03:07:35.321Z,48.93
2019-02-28T03:10:06.935Z,47.60
2019-02-28T03:12:38.474Z,46.70
2019-02-28T03:15:11.306Z,49.47
2019-02-28T03:17:46.644Z,54.07
2019-02-28T03:20:16.124Z,49.00
2019-02-28T03:22:47.629Z,35.63
2019-02-28T03:25:19.240Z,47.37
2019-02-28T03:27:54.986Z,46.00
2019-02-28T03:30:31.850Z,47.13
2019-02-28T03:32:57.456Z,30.60
2019-02-28T03:35:40.006Z,46.13
2019-02-28T03:38:10.552Z,34.50
2019-02-28T03:40:40.240Z,44.30
2019-02-28T03:43:10.719Z,47.83
2019-02-28T03:45:42.469Z,48.90
2019-02-28T03:48:14.115Z,43.33
2019-02-28T03:50:45.870Z,43.97
2019-02-28T03:53:20.029Z,43.73
2019-02-28T03:55:50.771Z,44.90
2019-02-28T03:58:22.258Z,41.03
2019-02-28T04:00:53.845Z,44.57
2019-02-28T04:03:25.475Z,25.53
2019-02-28T04:06:03.354Z,52.17
2019-02-28T04:08:30.823Z,41.40
2019-02-28T04:11:02.697Z,40.03
2019-02-28T04:13:34.384Z,39.43
2019-02-28T04:16:08.932Z,37.03
2019-02-28T04:18:44.147Z,39.53
2019-02-28T04:21:12.632Z,40.30
2019-02-28T04:23:46.692Z,41.93
2019-02-28T04:26:18.281Z,34.73
2019-02-28T04:28:53.499Z,36.80
2019-02-28T04:31:23.393Z,36.93
2019-02-28T04:33:55.560Z,30.80
2019-02-28T04:36:27.565Z,33.53
2019-02-28T04:38:59.176Z,32.67
2019-02-28T04:41:32.826Z,34.83
2019-02-28T04:44:04.655Z,93.33
2019-02-28T04:46:36.417Z,36.97
2019-02-28T04:49:08.278Z,40.80
2019-02-28T04:51:40.149Z,35.43
2019-02-28T04:54:13.309Z,43.67
2019-02-28T04:56:45.578Z,39.47
2019-02-28T04:59:18.282Z,37.37
2019-02-28T05:01:50.190Z,22.63
2019-02-28T05:04:21.980Z,38.07
2019-02-28T05:06:55.158Z,47.73
2019-02-28T05:09:27.209Z,37.80
2019-02-28T05:11:58.845Z,36.47
2019-02-28T05:14:30.419Z,34.83
2019-02-28T05:17:01.980Z,39.07
2019-02-28T05:19:35.853Z,29.90
2019-02-28T05:22:06.875Z,41.70
2019-02-28T05:24:39.390Z,36.67
2019-02-28T05:27:12.205Z,34.47
2019-02-28T05:29:44.825Z,39.97
2019-02-28T05:32:16.902Z,39.60
2019-02-28T05:34:51.124Z,34.13
2019-02-28T05:37:22.024Z,43.30
2019-02-28T05:39:53.726Z,34.63
2019-02-28T05:42:25.387Z,37.77
2019-02-28T05:44:57.484Z,32.63
2019-02-28T05:47:29.400Z,40.13
2019-02-28T05:50:02.432Z,36.17
2019-02-28T05:52:34.611Z,35.20
2019-02-28T05:55:06.378Z,47.93
2019-02-28T05:57:39.440Z,36.17
2019-02-28T06:00:12.014Z,38.93
2019-02-28T06:02:44.369Z,34.60
2019-02-28T06:05:16.194Z,45.37
2019-02-28T06:07:47.835Z,21.07
2019-02-28T06:10:23.544Z,33.80
2019-02-28T06:12:52.920Z,39.63
2019-02-28T06:15:25.186Z,42.23
2019-02-28T06:17:56.980Z,31.90
2019-02-28T06:20:29.039Z,39.87
2019-02-28T06:23:00.838Z,50.00
2019-02-28T06:25:32.769Z,39.03
2019-02-28T06:28:07.016Z,37.73
2019-02-28T06:30:41.554Z,30.83
2019-02-28T06:33:12.604Z,53.20
2019-02-28T06:35:49.548Z,45.13
2019-02-28T06:38:20.510Z,33.70
2019-02-28T06:40:52.812Z,38.17
2019-02-28T06:43:30.007Z,46.93
2019-02-28T06:46:03.757Z,39.37
2019-02-28T06:48:35.426Z,35.33
2019-02-28T06:51:07.140Z,40.10
2019-02-28T06:53:40.926Z,37.37
2019-02-28T06:56:16.352Z,35.23
2019-02-28T06:58:48.264Z,30.20
2019-02-28T07:01:22.680Z,34.30
2019-02-28T07:03:53.849Z,36.47
2019-02-28T07:06:25.877Z,31.67
2019-02-28T07:09:02.126Z,43.20
2019-02-28T07:11:38.366Z,54.00
2019-02-28T07:14:13.783Z,36.60
2019-02-28T07:16:44.512Z,31.93
2019-02-28T07:19:16.311Z,42.03
2019-02-28T07:21:48.415Z,18.17
2019-02-28T07:24:20.278Z,37.70
2019-02-28T07:26:53.030Z,33.07
2019-02-28T07:29:24.971Z,45.20
2019-02-28T07:31:59.995Z,38.60
2019-02-28T07:34:30.457Z,23.57
2019-02-28T07:37:02.226Z,40.60
2019-02-28T07:39:36.531Z,30.07
2019-02-28T07:42:07.972Z,48.47
2019-02-28T07:44:40.193Z,31.77
2019-02-28T07:47:17.145Z,28.27
2019-02-28T07:49:47.257Z,32.77
2019-02-28T07:52:20.448Z,36.87
2019-02-28T07:54:55.527Z,33.30
2019-02-28T07:57:26.014Z,44.00
2019-02-28T07:59:57.516Z,32.43
2019-02-28T08:02:29.430Z,35.30
2019-02-28T08:05:02.984Z,29.87
2019-02-28T08:07:36.572Z,35.47
2019-02-28T08:10:12.768Z,39.53
2019-02-28T08:12:44.363Z,35.07
2019-02-28T08:15:22.283Z,46.37
2019-02-28T08:17:52.947Z,31.40
2019-02-28T08:20:24.614Z,31.30
2019-02-28T08:22:57.803Z,29.80
2019-02-28T08:25:29.964Z,46.37
2019-02-28T08:28:01.954Z,33.47
2019-02-28T08:30:33.743Z,27.07
2019-02-28T08:33:05.626Z,36.67
2019-02-28T08:35:37.810Z,54.90
2019-02-28T08:38:09.670Z,38.43
2019-02-28T08:40:43.036Z,50.53
2019-02-28T08:43:16.424Z,47.10
2019-02-28T08:45:48.415Z,33.93
2019-02-28T08:48:44.922Z,35.37
2019-02-28T08:51:17.166Z,37.37
2019-02-28T08:53:51.277Z,33.57
2019-02-28T08:56:22.332Z,34.93
2019-02-28T08:58:54.528Z,34.53
2019-02-28T09:01:26.577Z,28.60
2019-02-28T09:03:59.849Z,33.13
2019-02-28T09:06:32.030Z,35.97
2019-02-28T09:09:04.776Z,38.83
2019-02-28T09:11:38.519Z,30.43
2019-02-28T09:14:10.432Z,39.03
2019-02-28T09:16:44.806Z,30.07
2019-02-28T09:19:16.826Z,34.53
2019-02-28T09:21:49.377Z,32.40
2019-02-28T09:24:22.438Z,30.63
2019-02-28T09:26:54.488Z,31.20
2019-02-28T09:29:29.425Z,34.23
2019-02-28T09:32:01.666Z,46.77
2019-02-28T09:34:34.295Z,32.30
2019-02-28T09:37:06.081Z,41.07
2019-02-28T09:39:38.107Z,38.20
2019-02-28T09:42:14.853Z,37.87
2019-02-28T09:44:43.770Z,31.77
2019-02-28T09:47:15.910Z,42.90
2019-02-28T09:49:48.150Z,32.43
2019-02-28T09:52:20.047Z,36.40
2019-02-28T09:54:51.940Z,35.10
2019-02-28T09:57:23.713Z,45.03
2019-02-28T09:59:55.936Z,44.60
2019-02-28T10:02:27.926Z,31.93
2019-02-28T10:05:02.931Z,36.80
2019-02-28T10:07:34.498Z,32.77
2019-02-28T10:10:06.793Z,42.33
2019-02-28T10:12:39.451Z,42.73
2019-02-28T10:15:18.650Z,45.60
2019-02-28T10:17:50.469Z,33.90
2019-02-28T10:20:27.222Z,44.03
2019-02-28T10:22:59.616Z,41.10
2019-02-28T10:25:33.518Z,37.80
2019-02-28T10:28:05.578Z,38.27
2019-02-28T10:30:42.556Z,34.40
2019-02-28T10:33:17.396Z,37.30
2019-02-28T10:35:52.394Z,29.00
2019-02-28T10:38:29.511Z,38.50
2019-02-28T10:41:02.271Z,42.53
2019-02-28T10:43:34.532Z,28.53
2019-02-28T10:46:36.043Z,43.00
2019-02-28T10:49:07.766Z,62.47
2019-02-28T10:51:39.679Z,54.87
2019-02-28T10:54:16.629Z,34.57
2019-02-28T10:56:49.492Z,43.17
2019-02-28T10:59:24.239Z,55.43
2019-02-28T11:01:55.052Z,33.33
2019-02-28T11:04:27.613Z,48.17
2019-02-28T11:07:02.250Z,43.60
2019-02-28T11:09:33.211Z,37.87
2019-02-28T11:12:06.800Z,38.10
2019-02-28T11:14:39.897Z,57.37
2019-02-28T11:17:13.887Z,32.93
2019-02-28T11:19:48.503Z,57.27
2019-02-28T11:22:19.864Z,56.13
2019-02-28T11:24:51.778Z,50.57
2019-02-28T11:27:28.186Z,47.10
2019-02-28T11:30:00.247Z,53.27
2019-02-28T11:32:33.403Z,33.33
2019-02-28T11:35:05.441Z,68.63
2019-02-28T11:37:37.264Z,43.33
2019-02-28T11:40:09.938Z,46.70
2019-02-28T11:42:42.182Z,44.17
2019-02-28T11:45:18.610Z,53.50
2019-02-28T11:47:50.796Z,54.13
2019-02-28T11:50:22.882Z,51.57
2019-02-28T11:52:54.342Z,38.47
2019-02-28T11:55:27.176Z,41.77
2019-02-28T11:57:59.424Z,52.63
2019-02-28T12:00:32.579Z,48.97
2019-02-28T12:03:06.112Z,44.10
2019-02-28T12:05:38.342Z,50.43
2019-02-28T12:08:13.561Z,40.57
2019-02-28T12:10:45.482Z,47.87
2019-02-28T12:13:19.577Z,43.57
2019-02-28T12:15:58.783Z,39.40
2019-02-28T12:18:30.594Z,46.13
2019-02-28T12:21:04.846Z,52.57
2019-02-28T12:23:36.452Z,37.80
2019-02-28T12:26:08.278Z,45.77
2019-02-28T12:28:39.599Z,42.33
2019-02-28T12:31:15.937Z,33.30
2019-02-28T12:33:53.466Z,43.50
2019-02-28T12:36:24.042Z,43.40
2019-02-28T12:38:59.442Z,44.17
2019-02-28T12:41:30.072Z,45.57
2019-02-28T12:44:02.381Z,42.23
2019-02-28T12:46:34.172Z,38.07
2019-02-28T12:49:06.896Z,47.30
2019-02-28T12:51:39.707Z,44.73
2019-02-28T12:54:12.611Z,49.30
2019-02-28T12:56:45.149Z,39.30
2019-02-28T12:59:18.046Z,39.17
2019-02-28T13:01:49.926Z,47.83
2019-02-28T13:04:21.974Z,48.37
2019-02-28T13:06:55.582Z,49.80
2019-02-28T13:09:30.180Z,40.37
2019-02-28T13:12:08.044Z,35.70
2019-02-28T13:14:40.808Z,56.23
2019-02-28T13:17:13.651Z,49.87
2019-02-28T13:19:47.909Z,30.13
2019-02-28T13:22:23.627Z,38.97
2019-02-28T13:24:55.339Z,47.37
2019-02-28T13:27:27.331Z,57.97
2019-02-28T13:30:00.194Z,37.00
2019-02-28T13:32:33.762Z,42.10
2019-02-28T13:35:07.531Z,50.83
2019-02-28T13:37:56.245Z,53.57
2019-02-28T13:40:28.225Z,59.00
2019-02-28T13:43:02.153Z,69.23
2019-02-28T13:45:34.247Z,58.93
2019-02-28T13:48:06.429Z,38.17
2019-02-28T13:50:39.003Z,48.80
2019-02-28T13:53:18.990Z,50.83
2019-02-28T13:55:45.624Z,70.87
2019-02-28T13:58:21.581Z,41.17
2019-02-28T14:00:51.378Z,51.37
2019-02-28T14:03:24.782Z,53.60
2019-02-28T14:05:58.600Z,52.40
2019-02-28T14:08:30.014Z,51.03
2019-02-28T14:11:02.088Z,53.70
2019-02-28T14:13:34.679Z,53.70
2019-02-28T14:16:07.300Z,59.23
2019-02-28T14:18:42.592Z,53.93
2019-02-28T14:21:14.433Z,61.03
2019-02-28T14:23:47.991Z,47.03
2019-02-28T14:26:19.925Z,41.00
2019-02-28T14:28:51.754Z,53.73
2019-02-28T14:31:24.162Z,58.00
2019-02-28T14:33:56.041Z,58.10
2019-02-28T14:36:28.336Z,52.67
2019-02-28T14:39:04.700Z,60.43
2019-02-28T14:41:35.290Z,48.37
2019-02-28T14:44:08.681Z,47.70
2019-02-28T14:46:43.395Z,53.07
2019-02-28T14:49:21.865Z,55.23
2019-02-28T14:51:54.997Z,55.67
2019-02-28T14:54:27.078Z,51.43
2019-02-28T14:56:59.054Z,54.90
2019-02-28T14:59:33.881Z,54.47
2019-02-28T15:02:09.372Z,45.03
2019-02-28T15:04:42.485Z,51.47
2019-02-28T15:07:14.596Z,57.77
2019-02-28T15:09:48.441Z,65.37
2019-02-28T15:12:24.449Z,57.70
2019-02-28T15:14:54.694Z,54.37
2019-02-28T15:17:26.828Z,36.33
2019-02-28T15:20:01.093Z,45.83
2019-02-28T15:22:34.253Z,43.07
2019-02-28T15:25:06.346Z,43.30
2019-02-28T15:27:39.019Z,48.73
2019-02-28T15:30:19.018Z,43.70
2019-02-28T15:32:54.245Z,45.27
2019-02-28T15:35:24.604Z,39.67
2019-02-28T15:37:57.253Z,39.70
2019-02-28T15:40:31.504Z,53.23
2019-02-28T15:43:03.340Z,50.30
2019-02-28T15:45:36.484Z,54.93
2019-02-28T15:48:09.407Z,38.43
2019-02-28T15:50:41.509Z,50.73
2019-02-28T15:53:15.129Z,50.87
2019-02-28T15:55:50.962Z,43.87
2019-02-28T15:58:22.990Z,38.13
2019-02-28T16:00:56.647Z,53.53
2019-02-28T16:03:28.932Z,46.90
2019-02-28T16:06:01.176Z,47.73
2019-02-28T16:08:33.401Z,42.33
2019-02-28T16:11:06.272Z,69.67
2019-02-28T16:13:43.164Z,50.47
2019-02-28T16:16:16.214Z,50.00
2019-02-28T16:18:47.978Z,53.70
2019-02-28T16:21:20.412Z,64.17
2019-02-28T16:23:52.005Z,67.13
2019-02-28T16:26:23.921Z,55.17
2019-02-28T16:28:55.991Z,48.27
2019-02-28T16:31:27.659Z,74.50
2019-02-28T16:34:08.226Z,43.00
2019-02-28T16:36:50.529Z,41.00
2019-02-28T16:39:22.445Z,52.30
2019-02-28T16:41:54.281Z,72.80
2019-02-28T16:44:27.575Z,48.93
2019-02-28T16:47:03.513Z,50.37
2019-02-28T16:49:35.496Z,55.60
2019-02-28T16:52:07.533Z,56.33
2019-02-28T16:54:39.947Z,49.40
2019-02-28T16:57:13.141Z,61.10
2019-02-28T16:59:44.931Z,82.73
2019-02-28T17:02:21.981Z,48.67
2019-02-28T17:04:54.258Z,52.40
2019-02-28T17:07:27.256Z,60.53
2019-02-28T17:10:01.632Z,50.07
2019-02-28T17:12:52.985Z,57.93
2019-02-28T17:15:34.039Z,55.10
2019-02-28T17:18:13.561Z,52.33
2019-02-28T17:20:45.062Z,56.47
2019-02-28T17:23:18.829Z,48.40
2019-02-28T17:25:53.587Z,48.13
2019-02-28T17:28:51.544Z,54.77
2019-02-28T17:31:44.629Z,57.87
2019-02-28T17:34:23.755Z,55.27
2019-02-28T17:36:53.640Z,54.63
2019-02-28T17:39:27.989Z,57.23
2019-02-28T17:42:08.534Z,61.97
2019-02-28T17:45:06.206Z,53.67
2019-02-28T17:48:24.881Z,53.70
2019-02-28T17:51:31.048Z,47.87
2019-02-28T17:54:43.041Z,53.13
2019-02-28T17:58:01.340Z,52.13
2019-02-28T18:01:12.549Z,49.67
2019-02-28T18:04:08.157Z,54.70
2019-02-28T18:07:23.714Z,50.73
2019-02-28T18:10:47.739Z,73.70
2019-02-28T18:13:55.193Z,56.63
2019-02-28T18:17:02.292Z,49.10
2019-02-28T18:20:32.269Z,52.00
2019-02-28T18:24:00.110Z,48.47
2019-02-28T18:27:17.976Z,52.97
2019-02-28T18:30:25.278Z,51.63
2019-02-28T18:32:57.328Z,60.00
2019-02-28T18:35:32.510Z,56.70
2019-02-28T18:38:08.030Z,56.80
2019-02-28T18:40:45.236Z,58.80
2019-02-28T18:43:17.158Z,54.03
2019-02-28T18:45:53.559Z,63.10
2019-02-28T18:48:24.402Z,56.30
2019-02-28T18:50:56.358Z,54.17
2019-02-28T18:53:30.788Z,65.90
2019-02-28T18:56:08.782Z,58.80
2019-02-28T18:58:40.789Z,62.67
2019-02-28T19:01:14.314Z,56.37
2019-02-28T19:03:46.060Z,33.43
2019-02-28T19:06:17.856Z,53.37
2019-02-28T19:08:50.415Z,43.03
2019-02-28T19:11:25.583Z,23.97
2019-02-28T19:13:57.222Z,48.07
2019-02-28T19:16:29.928Z,53.10
2019-02-28T19:19:02.037Z,43.93
2019-02-28T19:21:33.708Z,40.40
2019-02-28T19:24:05.616Z,48.80
2019-02-28T19:26:37.536Z,34.20
2019-02-28T19:29:09.730Z,35.63
2019-02-28T19:31:43.800Z,43.47
2019-02-28T19:34:15.784Z,53.33
2019-02-28T19:36:47.694Z,54.37
2019-02-28T19:39:19.869Z,26.50
2019-02-28T19:41:53.032Z,28.23
2019-02-28T19:44:25.814Z,19.30
2019-02-28T19:46:57.707Z,34.93
2019-02-28T19:49:29.780Z,8.70
2019-02-28T19:52:03.497Z,5.63
2019-02-28T19:54:36.180Z,10.77
2019-02-28T19:57:07.989Z,10.23
2019-02-28T19:59:40.441Z,7.30
2019-02-28T20:02:13.862Z,8.93
2019-02-28T20:04:48.192Z,9.40
2019-02-28T20:07:20.266Z,10.33
2019-02-28T20:09:54.150Z,14.20
2019-02-28T20:12:27.412Z,8.57
2019-02-28T20:15:01.275Z,21.73
2019-02-28T20:17:36.660Z,10.00
2019-02-28T20:20:11.664Z,18.20
2019-02-28T20:22:46.208Z,6.97
2019-02-28T20:25:17.101Z,7.43
2019-02-28T20:27:49.468Z,8.63
2019-02-28T20:30:21.580Z,7.83
2019-02-28T20:32:53.883Z,11.83
2019-02-28T20:35:27.485Z,6.90
2019-02-28T20:38:02.507Z,14.63
2019-02-28T20:40:34.397Z,5.00
2019-02-28T20:43:07.454Z,8.07
2019-02-28T20:45:40.645Z,4.37
2019-02-28T20:48:14.312Z,6.70
2019-02-28T20:50:47.766Z,6.43
2019-02-28T20:53:19.484Z,12.00
2019-02-28T20:55:51.619Z,5.63
2019-02-28T20:58:23.808Z,4.40
2019-02-28T21:00:55.461Z,11.13
2019-02-28T21:03:27.278Z,19.10
2019-02-28T21:05:59.476Z,4.87
2019-02-28T21:08:31.340Z,7.00
2019-02-28T21:11:06.688Z,9.37
2019-02-28T21:13:40.363Z,7.17
2019-02-28T21:16:14.725Z,5.60
2019-02-28T21:18:47.558Z,5.17
2019-02-28T21:21:21.927Z,5.77
2019-02-28T21:23:58.041Z,4.87
2019-02-28T21:26:29.883Z,10.27
2019-02-28T21:29:04.448Z,6.33
2019-02-28T21:31:37.530Z,5.20
2019-02-28T21:34:11.416Z,9.57
2019-02-28T21:36:45.434Z,6.47
2019-02-28T21:39:17.641Z,8.53
2019-02-28T21:41:50.016Z,11.37
2019-02-28T21:44:21.982Z,5.77
2019-02-28T21:46:54.152Z,7.47
2019-02-28T21:49:25.994Z,29.57
2019-02-28T21:52:00.137Z,12.27
2019-02-28T21:54:32.004Z,9.67
2019-02-28T21:57:03.915Z,11.63
2019-02-28T21:59:41.508Z,25.20
2019-02-28T22:02:15.788Z,8.30
2019-02-28T22:04:50.716Z,9.87
2019-02-28T22:07:23.895Z,14.87
2019-02-28T22:09:55.662Z,32.17
2019-02-28T22:12:27.339Z,15.93
2019-02-28T22:14:59.183Z,17.47
2019-02-28T22:17:30.786Z,18.10
2019-02-28T22:20:03.754Z,20.03
2019-02-28T22:22:36.812Z,22.57
2019-02-28T22:25:09.260Z,23.13
2019-02-28T22:27:41.354Z,24.70
2019-02-28T22:30:53.184Z,37.73
2019-02-28T22:33:44.376Z,32.80
2019-02-28T22:36:23.137Z,56.87
2019-02-28T22:38:55.204Z,35.43
2019-02-28T22:41:29.729Z,41.73
2019-02-28T22:44:03.978Z,37.03
2019-02-28T22:46:35.599Z,50.10
2019-02-28T22:49:07.705Z,55.27
2019-02-28T22:51:39.484Z,56.07
2019-02-28T22:54:12.656Z,63.73
2019-02-28T22:56:44.624Z,54.03
2019-02-28T22:59:16.644Z,54.80
2019-02-28T23:01:48.560Z,55.33
2019-02-28T23:04:20.680Z,59.70
2019-02-28T23:06:54.345Z,52.67
2019-02-28T23:09:27.366Z,52.40
2019-02-28T23:11:59.202Z,59.93
2019-02-28T23:14:32.796Z,58.87
2019-02-28T23:17:04.594Z,54.57
2019-02-28T23:19:36.266Z,58.40
2019-02-28T23:22:09.039Z,55.17
2019-02-28T23:24:40.843Z,51.00
2019-02-28T23:27:15.370Z,44.33
2019-02-28T23:30:32.248Z,59.67
2019-02-28T23:33:10.961Z,55.77
2019-02-28T23:35:44.222Z,55.73
2019-02-28T23:38:16.440Z,53.47
2019-02-28T23:40:48.402Z,59.97
2019-02-28T23:43:20.278Z,66.87
2019-02-28T23:45:54.294Z,57.23
2019-02-28T23:48:25.520Z,60.53
2019-02-28T23:50:57.399Z,67.77
2019-02-28T23:53:29.136Z,57.93
2019-02-28T23:56:01.014Z,55.73
2019-02-28T23:58:45.248Z,45.93
